CheckWX is a tool to help pilots better visualize weather data.  It is not intended as a substitute for an official pre-flight weather briefing.

03:40:42 UTC

EGQM METAR
Boulmer Airfield Airport
Boulmer, United Kingdom
Current

51 mins ago

EGQM 260250Z AUTO 10003KT 4900 BR BKN001/// BKN017/// 13/12 Q1008
Observed
May-26 @ 02:50 UTC
Wind
  • 100° at 3 KTS
Visibility
4,892 meters
Flight Rules
LIFR
Conditions
Mist
Cloud Levels
  • Broken at 100' AGL
  • Broken at 1,700' AGL
Temperature
13°C / 55°F
Dewpoint
12°C / 54°F
Humidity
94%
Altimeter
29.76" Hg
Pressure
1007.92 hPa
Previous

2 hours ago

EGQM 260150Z AUTO 05005KT 8000 BR FEW001/// OVC013/// 13/12 Q1008
Observed
May-26 @ 01:50 UTC
Wind
  • 050° at 5 KTS
Visibility
7,998 meters
Flight Rules
MVFR
Conditions
Mist
Cloud Levels
  • Few at 100' AGL
  • Overcast at 1,300' AGL
Temperature
13°C / 55°F
Dewpoint
12°C / 54°F
Humidity
94%
Altimeter
29.76" Hg
Pressure
1007.92 hPa
Previous

3 hours ago

EGQM 260050Z AUTO 25003KT 9999 BKN020/// SCT070/// 15/13 Q1009
Observed
May-26 @ 00:50 UTC
Wind
  • 250° at 3 KTS
Visibility
10,000+ meters
Flight Rules
MVFR
Cloud Levels
  • Broken at 2,000' AGL
  • Scattered at 7,000' AGL
Temperature
15°C / 59°F
Dewpoint
13°C / 55°F
Humidity
88%
Altimeter
29.79" Hg
Pressure
1008.92 hPa